Time;durP1;ratioP1;P1;durP2;ratioP2;P2;SDS_P1;SDS_P2;PMS_P1;PMS_P2;Temp;Humidity;BMP_temperature;BMP_pressure;BME280_temperature;BME280_humidity;BME280_pressure;Samples;Min_cycle;Max_cycle;Signal;HPM_P1;HPM_P2
2022/09/07 00:00:32;;;;;;;11.18;8.20;;;19.50;99.90;;;;;;5117003;27;20051;-61
2022/09/07 00:02:58;;;;;;;14.75;9.38;;;19.50;99.90;;;;;;5147493;27;20442;-61
2022/09/07 00:05:24;;;;;;;11.90;8.27;;;19.40;99.90;;;;;;5098009;27;20043;-61
2022/09/07 00:07:50;;;;;;;19.02;9.10;;;19.30;99.90;;;;;;5115892;27;20124;-61
2022/09/07 00:10:15;;;;;;;9.77;8.55;;;19.30;99.90;;;;;;5130266;27;20047;-61
2022/09/07 00:12:41;;;;;;;11.98;8.48;;;19.30;99.90;;;;;;5135674;27;20058;-61
2022/09/07 00:15:10;;;;;;;14.70;8.55;;;19.20;99.90;;;;;;5153249;27;20073;-61
2022/09/07 00:17:36;;;;;;;11.85;8.15;;;19.20;99.90;;;;;;5135221;27;20043;-63
2022/09/07 00:20:03;;;;;;;13.95;9.15;;;19.20;99.90;;;;;;5130089;27;20046;-61
2022/09/07 00:22:28;;;;;;;17.15;10.10;;;19.20;99.90;;;;;;5140442;27;20039;-61
2022/09/07 00:24:54;;;;;;;14.90;9.55;;;19.20;99.90;;;;;;5132527;27;20068;-59
2022/09/07 00:27:20;;;;;;;13.75;9.57;;;19.20;99.90;;;;;;5137058;27;20050;-60
2022/09/07 00:29:46;;;;;;;14.35;9.07;;;19.10;99.90;;;;;;5131081;27;20141;-60
2022/09/07 00:32:12;;;;;;;11.95;8.98;;;19.10;99.90;;;;;;5139022;27;20039;-61
2022/09/07 00:34:37;;;;;;;17.02;8.60;;;19.10;99.90;;;;;;5134978;27;20077;-62
2022/09/07 00:37:03;;;;;;;12.35;9.50;;;19.00;99.90;;;;;;5114167;27;20120;-61
2022/09/07 00:39:29;;;;;;;13.18;9.95;;;19.00;99.90;;;;;;5146714;27;20046;-62
2022/09/07 00:41:55;;;;;;;11.18;9.77;;;19.00;99.90;;;;;;5148750;27;20049;-60
2022/09/07 00:44:42;;;;;;;12.68;9.57;;;19.00;99.90;;;;;;5143497;27;20068;-60
2022/09/07 00:47:14;;;;;;;12.90;10.00;;;19.00;99.90;;;;;;5132749;27;20144;-61
2022/09/07 00:49:42;;;;;;;12.88;9.90;;;19.00;99.90;;;;;;5132973;27;20125;-60
2022/09/07 00:52:10;;;;;;;11.13;10.00;;;18.90;99.90;;;;;;5133447;27;20109;-61
2022/09/07 00:54:42;;;;;;;13.40;10.10;;;18.90;99.90;;;;;;5151423;27;20183;-61
2022/09/07 00:57:08;;;;;;;13.30;10.32;;;18.90;99.90;;;;;;5131903;27;20054;-60
2022/09/07 00:59:41;;;;;;;13.00;10.13;;;18.90;99.90;;;;;;5114245;27;20054;-61
2022/09/07 01:02:07;;;;;;;11.60;9.68;;;18.90;99.90;;;;;;5144954;27;20038;-61
2022/09/07 01:04:34;;;;;;;13.57;10.27;;;18.90;99.90;;;;;;5114485;27;20554;-61
2022/09/07 01:07:01;;;;;;;11.43;10.20;;;18.80;99.90;;;;;;5116236;27;20054;-60
2022/09/07 01:09:28;;;;;;;11.55;10.35;;;18.70;99.90;;;;;;5149696;27;20050;-60
2022/09/07 01:11:56;;;;;;;12.48;10.35;;;18.60;99.90;;;;;;5132185;27;20047;-59
2022/09/07 01:14:26;;;;;;;12.88;9.75;;;18.60;99.90;;;;;;5133099;27;20050;-60
2022/09/07 01:16:58;;;;;;;13.52;9.70;;;18.50;99.90;;;;;;5132308;27;20087;-61
2022/09/07 01:19:36;;;;;;;12.30;10.57;;;18.60;99.90;;;;;;5113683;27;20043;-60
2022/09/07 01:22:46;;;;;;;13.18;9.95;;;18.60;99.90;;;;;;5118788;27;20055;-60
2022/09/07 01:25:35;;;;;;;13.35;10.85;;;18.60;99.90;;;;;;5064019;28;20044;-60
2022/09/07 01:28:23;;;;;;;15.65;10.82;;;18.60;99.90;;;;;;5026396;28;20048;-62
2022/09/07 01:31:04;;;;;;;11.85;10.43;;;18.60;99.90;;;;;;5112902;27;20149;-61
2022/09/07 01:34:07;;;;;;;16.17;10.50;;;18.50;99.90;;;;;;5147219;27;20039;-63
2022/09/07 01:36:41;;;;;;;14.02;10.57;;;18.50;99.90;;;;;;5127759;27;20046;-61
2022/09/07 01:39:07;;;;;;;12.55;10.15;;;18.50;99.90;;;;;;5149675;27;20125;-63
2022/09/07 01:41:42;;;;;;;19.65;12.38;;;18.50;99.90;;;;;;5116222;27;20130;-62
2022/09/07 01:44:29;;;;;;;16.02;12.77;;;18.50;99.90;;;;;;5128841;27;20047;-61
2022/09/07 01:47:09;;;;;;;15.70;13.63;;;18.30;99.90;;;;;;5140408;27;20042;-61
2022/09/07 01:49:51;;;;;;;15.75;13.65;;;18.20;99.90;;;;;;5127102;27;20038;-61
2022/09/07 01:52:27;;;;;;;17.83;13.70;;;18.10;99.90;;;;;;5145145;27;20047;-61
2022/09/07 01:55:14;;;;;;;16.23;14.18;;;18.00;99.90;;;;;;5114785;27;20046;-61
2022/09/07 01:57:52;;;;;;;13.80;11.38;;;18.00;99.90;;;;;;5142254;27;20390;-61
2022/09/07 02:00:18;;;;;;;11.40;9.25;;;18.00;99.90;;;;;;5138004;27;20077;-61
2022/09/07 02:02:47;;;;;;;14.65;9.85;;;18.00;99.90;;;;;;5113022;27;20116;-60
2022/09/07 02:05:35;;;;;;;12.07;9.00;;;18.10;99.90;;;;;;5130970;27;20047;-61
2022/09/07 02:08:11;;;;;;;13.80;9.15;;;18.10;99.90;;;;;;5132348;27;20039;-61
2022/09/07 02:11:00;;;;;;;11.40;9.82;;;18.10;99.90;;;;;;5119743;27;20125;-61
2022/09/07 02:13:36;;;;;;;13.27;9.23;;;18.00;99.90;;;;;;5136906;27;20102;-61
2022/09/07 02:16:05;;;;;;;15.88;10.25;;;18.10;99.90;;;;;;5116838;27;20058;-62
2022/09/07 02:18:37;;;;;;;13.23;10.40;;;18.00;99.90;;;;;;5116327;27;20130;-62
2022/09/07 02:21:06;;;;;;;13.13;11.35;;;18.00;99.90;;;;;;5139455;27;20038;-61
2022/09/07 02:23:38;;;;;;;14.75;12.38;;;18.00;99.90;;;;;;5151284;27;20043;-62
2022/09/07 02:26:09;;;;;;;15.85;11.38;;;18.00;99.90;;;;;;5131468;27;20035;-62
2022/09/07 02:28:37;;;;;;;15.55;11.73;;;18.00;99.90;;;;;;5123679;27;20122;-62
2022/09/07 02:31:03;;;;;;;14.63;10.52;;;18.00;99.90;;;;;;5147779;27;20067;-62
2022/09/07 02:33:29;;;;;;;22.25;11.48;;;18.00;99.90;;;;;;5107116;28;20082;-61
2022/09/07 02:35:56;;;;;;;12.43;10.88;;;18.00;99.90;;;;;;5131060;27;20404;-61
2022/09/07 02:38:22;;;;;;;12.38;10.75;;;18.00;99.90;;;;;;5134910;27;20114;-61
2022/09/07 02:40:56;;;;;;;13.05;10.98;;;17.90;99.90;;;;;;5149909;27;20137;-60
2022/09/07 02:43:24;;;;;;;11.75;10.45;;;17.90;99.90;;;;;;5130331;27;20026;-60
2022/09/07 02:45:58;;;;;;;12.48;9.80;;;17.80;99.90;;;;;;5136813;27;20043;-61
2022/09/07 02:48:24;;;;;;;;;;;17.80;99.90;;;;;;5131430;27;20043;-61
2022/09/07 02:51:03;;;;;;;10.90;9.55;;;17.80;99.90;;;;;;5151023;27;19949;-60
2022/09/07 02:53:37;;;;;;;12.45;9.80;;;17.70;99.90;;;;;;5135141;27;20528;-61
2022/09/07 02:56:28;;;;;;;13.63;9.55;;;17.70;99.90;;;;;;5134460;27;20499;-61
2022/09/07 02:59:03;;;;;;;14.10;9.75;;;17.60;99.90;;;;;;5143964;27;20357;-60
2022/09/07 03:01:39;;;;;;;11.00;9.38;;;17.60;99.90;;;;;;5098994;27;20577;-60
2022/09/07 03:04:18;;;;;;;10.63;8.95;;;17.60;99.90;;;;;;5140785;27;20043;-61
2022/09/07 03:06:51;;;;;;;12.80;9.93;;;17.60;99.90;;;;;;5121216;27;20236;-60
2022/09/07 03:09:21;;;;;;;14.43;9.27;;;17.60;99.90;;;;;;5142379;27;20083;-64
2022/09/07 03:11:48;;;;;;;9.93;8.23;;;17.60;99.90;;;;;;5116382;27;20078;-60
2022/09/07 03:14:20;;;;;;;10.15;8.63;;;17.50;99.90;;;;;;5136529;27;20105;-65
2022/09/07 03:16:48;;;;;;;11.18;8.57;;;17.50;99.90;;;;;;5116000;27;20043;-61
2022/09/07 03:19:14;;;;;;;9.57;8.35;;;17.50;99.90;;;;;;5134229;27;20070;-64
2022/09/07 03:21:40;;;;;;;9.20;8.30;;;17.60;99.90;;;;;;5119632;27;20043;-59
2022/09/07 03:24:06;;;;;;;11.20;8.95;;;17.60;99.90;;;;;;5124770;27;20056;-59
2022/09/07 03:26:32;;;;;;;10.25;8.20;;;17.60;99.90;;;;;;5140913;27;20080;-61
2022/09/07 03:28:58;;;;;;;15.27;8.60;;;17.60;99.90;;;;;;5134431;27;20041;-60
2022/09/07 03:31:24;;;;;;;10.55;8.23;;;17.60;99.90;;;;;;5117283;27;20819;-60
2022/09/07 03:33:50;;;;;;;9.43;7.47;;;17.60;99.90;;;;;;5146481;27;20043;-60
2022/09/07 03:36:16;;;;;;;8.60;7.70;;;17.50;99.90;;;;;;5134115;27;20504;-64
2022/09/07 03:38:41;;;;;;;8.48;7.18;;;17.50;99.90;;;;;;5134272;27;20514;-60
2022/09/07 03:41:07;;;;;;;12.48;7.20;;;17.60;99.90;;;;;;5118719;27;20061;-59
2022/09/07 03:43:33;;;;;;;7.88;6.32;;;17.60;99.90;;;;;;5154388;27;20054;-60
2022/09/07 03:46:04;;;;;;;7.32;5.78;;;17.50;99.90;;;;;;5153252;27;20082;-59
2022/09/07 03:48:32;;;;;;;8.85;6.38;;;17.50;99.90;;;;;;5144830;27;20099;-60
2022/09/07 03:51:07;;;;;;;8.88;7.07;;;17.50;99.90;;;;;;5134839;27;20077;-60
2022/09/07 03:53:38;;;;;;;9.05;7.25;;;17.50;99.90;;;;;;5133305;27;20047;-60
2022/09/07 03:56:05;;;;;;;8.90;7.35;;;17.50;99.90;;;;;;5123352;27;20118;-60
2022/09/07 03:58:32;;;;;;;9.18;7.82;;;17.50;99.90;;;;;;5146299;27;20054;-60
2022/09/07 04:01:03;;;;;;;9.13;7.45;;;17.50;99.90;;;;;;5136144;27;20043;-61
2022/09/07 04:03:29;;;;;;;9.20;7.20;;;17.60;99.90;;;;;;5133538;27;20458;-60
2022/09/07 04:05:57;;;;;;;9.20;7.22;;;17.50;99.90;;;;;;5126322;27;20078;-60
2022/09/07 04:08:31;;;;;;;8.88;6.60;;;17.60;99.90;;;;;;5133228;27;20088;-60
2022/09/07 04:10:58;;;;;;;9.20;7.70;;;17.50;99.90;;;;;;5128590;27;20045;-60
2022/09/07 04:13:25;;;;;;;8.85;7.72;;;17.40;99.90;;;;;;5134863;27;20082;-61
2022/09/07 04:15:51;;;;;;;8.65;7.20;;;17.40;99.90;;;;;;5130384;27;20877;-60
2022/09/07 04:18:17;;;;;;;10.45;7.45;;;17.40;99.90;;;;;;5133140;27;20518;-60
2022/09/07 04:20:43;;;;;;;9.48;7.38;;;17.40;99.90;;;;;;5133027;27;20035;-59
2022/09/07 04:23:09;;;;;;;8.55;7.22;;;17.40;99.90;;;;;;5136587;27;20035;-60
2022/09/07 04:25:35;;;;;;;11.38;7.88;;;17.40;99.90;;;;;;5133032;27;20442;-60
2022/09/07 04:28:01;;;;;;;12.50;8.80;;;17.40;99.90;;;;;;5137409;27;20047;-61
2022/09/07 04:30:26;;;;;;;11.63;7.70;;;17.40;99.90;;;;;;5116624;27;20500;-60
2022/09/07 04:32:52;;;;;;;11.15;8.85;;;17.40;99.90;;;;;;5153854;27;20041;-60
2022/09/07 04:35:18;;;;;;;10.48;8.65;;;17.40;99.90;;;;;;5145563;27;20042;-60
2022/09/07 04:37:44;;;;;;;9.75;8.73;;;17.30;99.90;;;;;;5140885;27;20808;-59
2022/09/07 04:40:10;;;;;;;10.65;8.85;;;17.30;99.90;;;;;;5115113;27;20095;-60
2022/09/07 04:42:36;;;;;;;10.57;9.10;;;17.30;99.90;;;;;;5097567;27;20039;-61
2022/09/07 04:45:03;;;;;;;13.18;9.73;;;17.30;99.90;;;;;;5132517;27;20046;-60
2022/09/07 04:47:31;;;;;;;11.50;9.23;;;17.40;99.90;;;;;;5126070;27;20058;-60
2022/09/07 04:49:57;;;;;;;12.38;10.20;;;17.40;99.90;;;;;;5140082;27;20072;-61
2022/09/07 04:52:23;;;;;;;14.57;10.85;;;17.40;99.90;;;;;;5114499;27;20043;-59
2022/09/07 04:54:49;;;;;;;15.75;12.43;;;17.30;99.90;;;;;;5113853;27;20074;-60
2022/09/07 04:57:20;;;;;;;14.20;12.70;;;17.20;99.90;;;;;;5133883;27;20067;-59
2022/09/07 04:59:49;;;;;;;14.35;11.48;;;17.10;99.90;;;;;;5145495;27;20038;-60
2022/09/07 05:02:15;;;;;;;13.60;12.02;;;17.10;99.90;;;;;;5142700;27;20039;-60
2022/09/07 05:04:40;;;;;;;15.23;12.68;;;17.20;99.90;;;;;;5113367;27;20039;-61
2022/09/07 05:07:07;;;;;;;14.70;13.23;;;17.20;99.90;;;;;;5114176;27;20039;-61
2022/09/07 05:09:32;;;;;;;14.85;13.35;;;17.30;99.90;;;;;;5097666;27;20066;-61
2022/09/07 05:11:58;;;;;;;15.55;13.77;;;17.20;99.90;;;;;;5111074;27;20031;-60
2022/09/07 05:14:24;;;;;;;16.10;14.45;;;17.30;99.90;;;;;;5140388;27;20050;-61
2022/09/07 05:16:50;;;;;;;15.02;13.45;;;17.30;99.90;;;;;;5113006;27;20058;-60
2022/09/07 05:19:15;;;;;;;16.25;14.55;;;17.30;99.90;;;;;;5133615;27;20058;-61
2022/09/07 05:21:41;;;;;;;18.15;14.95;;;17.30;99.90;;;;;;5133453;27;20102;-61
2022/09/07 05:24:07;;;;;;;17.30;14.48;;;17.30;99.90;;;;;;5133346;27;20194;-61
2022/09/07 05:26:35;;;;;;;19.38;15.30;;;17.30;99.90;;;;;;5132473;27;20086;-61
2022/09/07 05:29:03;;;;;;;17.70;15.40;;;17.30;99.90;;;;;;5123289;27;20054;-60
2022/09/07 05:31:30;;;;;;;18.90;16.08;;;17.20;99.90;;;;;;5116123;27;20043;-61
2022/09/07 05:33:58;;;;;;;19.23;16.70;;;17.30;99.90;;;;;;5146035;27;20503;-60
2022/09/07 05:36:26;;;;;;;18.35;16.40;;;17.30;99.90;;;;;;5133631;27;20114;-58
2022/09/07 05:38:57;;;;;;;20.13;16.95;;;17.30;99.90;;;;;;5144452;27;20617;-61
2022/09/07 05:41:24;;;;;;;21.83;18.15;;;17.20;99.90;;;;;;5136114;27;20400;-60
2022/09/07 05:43:51;;;;;;;23.20;19.80;;;17.20;99.90;;;;;;5140095;27;20040;-61
2022/09/07 05:46:17;;;;;;;22.73;18.50;;;17.20;99.90;;;;;;5146138;27;20113;-60
2022/09/07 05:48:43;;;;;;;25.52;18.00;;;17.20;99.90;;;;;;5117968;27;20543;-61
2022/09/07 05:51:11;;;;;;;21.38;18.70;;;17.30;99.90;;;;;;5135926;27;20045;-60
2022/09/07 05:53:39;;;;;;;26.70;19.13;;;17.30;99.90;;;;;;5145528;27;20039;-61
2022/09/07 05:56:05;;;;;;;21.98;19.27;;;17.40;99.90;;;;;;5149652;27;20091;-62
2022/09/07 05:58:31;;;;;;;27.85;19.35;;;17.50;99.90;;;;;;5143959;27;20047;-60
2022/09/07 06:00:59;;;;;;;23.08;19.23;;;17.50;99.90;;;;;;5147248;27;20058;-59
2022/09/07 06:03:25;;;;;;;23.98;19.60;;;17.50;99.90;;;;;;5144693;27;20037;-61
2022/09/07 06:06:01;;;;;;;25.15;20.15;;;17.50;99.90;;;;;;5150336;27;20117;-60
2022/09/07 06:08:27;;;;;;;24.63;19.05;;;17.50;99.90;;;;;;5151578;27;20050;-60
2022/09/07 06:10:53;;;;;;;22.75;19.80;;;17.50;99.90;;;;;;5147926;27;20093;-61
2022/09/07 06:13:19;;;;;;;25.60;19.88;;;17.60;99.90;;;;;;5123745;27;20082;-60
2022/09/07 06:15:45;;;;;;;23.70;19.45;;;17.60;99.90;;;;;;5131866;27;20089;-60
2022/09/07 06:18:10;;;;;;;22.92;19.77;;;17.60;99.90;;;;;;5132930;27;20046;-64
2022/09/07 06:20:36;;;;;;;23.45;19.42;;;17.60;99.90;;;;;;5140928;27;20352;-66
2022/09/07 06:23:02;;;;;;;23.83;21.05;;;17.60;99.90;;;;;;5148064;27;20038;-62
2022/09/07 06:25:27;;;;;;;22.67;19.30;;;17.60;99.90;;;;;;5133347;27;20136;-60
2022/09/07 06:27:53;;;;;;;25.92;21.05;;;17.60;99.90;;;;;;5142927;27;20444;-60
2022/09/07 06:30:20;;;;;;;24.52;20.70;;;17.60;99.90;;;;;;5137355;27;20050;-60
2022/09/07 06:32:46;;;;;;;23.95;20.33;;;17.60;99.90;;;;;;5145803;27;20039;-60
2022/09/07 06:35:12;;;;;;;24.50;19.90;;;17.60;99.90;;;;;;5135629;27;20403;-61
2022/09/07 06:37:38;;;;;;;25.15;20.85;;;17.60;99.90;;;;;;5149947;27;20046;-64
2022/09/07 06:40:04;;;;;;;23.75;21.23;;;17.60;99.90;;;;;;5146011;27;20047;-60
2022/09/07 06:42:31;;;;;;;25.13;19.70;;;17.70;99.90;;;;;;5119309;27;20284;-60
2022/09/07 06:44:57;;;;;;;23.00;20.02;;;17.60;99.90;;;;;;5137046;27;20069;-60
2022/09/07 06:47:23;;;;;;;23.65;20.20;;;17.60;99.90;;;;;;5143092;27;20047;-62
2022/09/07 06:49:48;;;;;;;25.70;20.35;;;17.70;99.90;;;;;;5127272;27;20042;-61
2022/09/07 06:52:14;;;;;;;24.77;20.42;;;17.70;99.90;;;;;;5134388;27;20039;-61
2022/09/07 06:54:40;;;;;;;24.88;21.48;;;17.70;99.90;;;;;;5139795;27;20404;-64
2022/09/07 06:57:07;;;;;;;24.95;20.85;;;17.70;99.90;;;;;;5137470;27;20403;-60
2022/09/07 06:59:33;;;;;;;28.75;21.35;;;17.60;99.90;;;;;;5140074;27;20038;-59
2022/09/07 07:01:59;;;;;;;25.45;21.23;;;17.60;99.90;;;;;;5138274;27;20047;-59
2022/09/07 07:04:25;;;;;;;26.85;21.80;;;17.60;99.90;;;;;;5141527;27;20103;-61
2022/09/07 07:06:51;;;;;;;25.13;20.75;;;17.60;99.90;;;;;;5121717;27;20434;-60
2022/09/07 07:09:17;;;;;;;26.95;21.45;;;17.60;99.90;;;;;;5138283;27;20068;-59
2022/09/07 07:11:46;;;;;;;31.15;22.38;;;17.60;99.90;;;;;;5138564;27;20159;-64
2022/09/07 07:14:14;;;;;;;25.95;23.25;;;17.70;99.90;;;;;;5138609;27;20100;-59
2022/09/07 07:16:40;;;;;;;28.17;24.08;;;17.70;99.90;;;;;;5141427;27;20054;-60
2022/09/07 07:19:06;;;;;;;27.52;24.40;;;17.70;99.90;;;;;;5136763;27;20051;-61
2022/09/07 07:21:32;;;;;;;27.02;24.13;;;17.80;99.90;;;;;;5139693;27;20055;-61
2022/09/07 07:23:57;;;;;;;28.23;25.13;;;17.80;99.90;;;;;;5136584;27;20039;-61
2022/09/07 07:26:26;;;;;;;27.63;24.63;;;17.80;99.90;;;;;;5137211;27;20051;-61
2022/09/07 07:28:54;;;;;;;29.83;25.67;;;17.90;99.90;;;;;;5145964;27;20173;-61
2022/09/07 07:31:23;;;;;;;39.67;27.58;;;17.90;99.90;;;;;;5136956;27;20043;-61
2022/09/07 07:34:08;;;;;;;29.15;25.30;;;17.90;99.90;;;;;;5101043;27;20473;-61
2022/09/07 07:36:34;;;;;;;32.75;25.35;;;18.00;99.90;;;;;;5137610;27;20084;-63
2022/09/07 07:39:00;;;;;;;29.42;26.25;;;18.00;99.90;;;;;;5117650;27;20042;-62
2022/09/07 07:41:30;;;;;;;29.25;24.58;;;18.10;99.90;;;;;;5138791;27;20119;-62
2022/09/07 07:43:58;;;;;;;29.45;25.30;;;18.00;99.90;;;;;;5129637;27;20460;-63
2022/09/07 07:46:25;;;;;;;23.63;18.98;;;18.10;99.90;;;;;;5143640;27;20039;-63
2022/09/07 07:48:52;;;;;;;24.90;18.67;;;18.10;99.90;;;;;;5141478;27;20077;-62
2022/09/07 07:51:18;;;;;;;24.17;18.83;;;18.10;99.90;;;;;;5142768;27;20038;-62
2022/09/07 07:53:44;;;;;;;23.30;17.67;;;18.10;99.90;;;;;;5146848;27;20494;-60
2022/09/07 07:56:11;;;;;;;21.38;17.75;;;18.10;99.90;;;;;;5120845;27;20081;-62
2022/09/07 07:58:38;;;;;;;20.25;18.13;;;18.10;99.90;;;;;;5121519;27;20058;-61
2022/09/07 08:01:09;;;;;;;20.80;18.50;;;18.10;99.90;;;;;;5140064;27;20035;-61
2022/09/07 08:03:37;;;;;;;22.90;19.02;;;18.10;99.90;;;;;;5143908;27;20116;-61
2022/09/07 08:06:12;;;;;;;25.80;23.13;;;18.10;99.90;;;;;;5152805;27;20042;-60
2022/09/07 08:08:38;;;;;;;24.02;21.42;;;18.10;99.90;;;;;;5142127;27;20042;-61
2022/09/07 08:11:09;;;;;;;24.38;21.77;;;18.10;99.90;;;;;;5143605;27;20047;-61
2022/09/07 08:13:40;;;;;;;24.30;21.38;;;18.20;99.90;;;;;;5133218;27;20134;-61
2022/09/07 08:16:06;;;;;;;26.83;23.02;;;18.20;99.90;;;;;;5145114;27;20513;-62
2022/09/07 08:18:34;;;;;;;24.40;21.85;;;18.40;99.90;;;;;;5117195;27;20047;-62
2022/09/07 08:21:01;;;;;;;25.30;22.50;;;18.40;99.90;;;;;;5118177;27;20567;-62
2022/09/07 08:23:27;;;;;;;25.40;22.63;;;18.40;99.90;;;;;;5112304;27;20047;-63
2022/09/07 08:25:57;;;;;;;26.23;21.20;;;18.50;99.90;;;;;;5133249;27;20457;-65
2022/09/07 08:28:24;;;;;;;27.17;22.50;;;18.50;99.90;;;;;;5135129;27;20047;-62
2022/09/07 08:30:49;;;;;;;26.52;20.90;;;18.50;99.90;;;;;;5124894;27;20058;-61
2022/09/07 08:33:15;;;;;;;27.20;22.35;;;18.60;99.90;;;;;;5140115;27;20046;-66
2022/09/07 08:35:41;;;;;;;24.38;21.13;;;18.70;99.90;;;;;;5134563;27;20060;-63
2022/09/07 08:38:07;;;;;;;24.17;21.58;;;18.70;99.90;;;;;;5127821;27;20046;-62
2022/09/07 08:40:36;;;;;;;25.27;21.55;;;18.80;99.90;;;;;;5140074;27;20043;-62
2022/09/07 08:43:28;;;;;;;26.83;21.10;;;18.80;99.90;;;;;;5097275;27;20123;-62
2022/09/07 08:46:02;;;;;;;26.60;21.08;;;18.90;99.90;;;;;;5137692;27;20042;-62
2022/09/07 08:48:34;;;;;;;23.27;20.35;;;19.00;99.90;;;;;;5104890;27;20094;-65
2022/09/07 08:51:21;;;;;;;22.67;20.27;;;19.10;99.90;;;;;;5115344;27;20098;-62
2022/09/07 08:53:48;;;;;;;26.30;21.38;;;19.00;99.90;;;;;;5126030;27;20135;-62
2022/09/07 08:56:29;;;;;;;26.70;21.20;;;19.10;99.90;;;;;;5128970;27;20072;-63
2022/09/07 08:58:54;;;;;;;24.77;21.92;;;19.10;99.90;;;;;;5107387;27;20481;-61
2022/09/07 09:01:36;;;;;;;25.40;21.35;;;19.10;99.90;;;;;;5134130;27;20047;-62
2022/09/07 09:04:03;;;;;;;24.10;20.98;;;19.10;99.90;;;;;;5137951;27;20122;-63
2022/09/07 09:07:16;;;;;;;23.02;20.60;;;19.00;99.90;;;;;;5107653;27;20099;-61
2022/09/07 09:09:51;;;;;;;23.55;20.65;;;19.00;99.90;;;;;;5063260;28;20185;-62
2022/09/07 09:12:53;;;;;;;23.65;21.13;;;19.10;99.90;;;;;;5059526;28;20727;-62
2022/09/07 09:15:29;;;;;;;23.52;21.02;;;19.10;99.90;;;;;;5084737;28;20047;-62
2022/09/07 09:18:20;;;;;;;23.98;21.38;;;19.10;99.90;;;;;;5109424;28;20100;-61
2022/09/07 09:20:57;;;;;;;24.88;21.00;;;19.30;99.90;;;;;;5096861;28;20054;-60
2022/09/07 09:23:30;;;;;;;22.40;20.00;;;19.50;99.90;;;;;;5096281;28;20038;-62
2022/09/07 09:26:23;;;;;;;21.58;18.92;;;19.80;99.90;;;;;;5098101;28;20404;-60
2022/09/07 09:28:49;;;;;;;22.13;19.20;;;20.00;99.90;;;;;;5106816;28;20443;-60
2022/09/07 09:31:21;;;;;;;20.90;18.75;;;20.30;99.90;;;;;;5091821;28;20044;-61
2022/09/07 09:34:04;;;;;;;21.75;17.20;;;20.60;99.90;;;;;;5101048;28;20043;-61
2022/09/07 09:36:39;;;;;;;19.40;17.40;;;20.90;99.90;;;;;;5104187;28;20120;-62
2022/09/07 09:39:34;;;;;;;18.05;16.17;;;21.00;99.90;;;;;;5100131;28;20048;-62
2022/09/07 09:42:23;;;;;;;19.60;17.50;;;21.10;99.90;;;;;;5105371;28;20103;-62
2022/09/07 09:44:49;;;;;;;19.13;16.38;;;21.20;99.90;;;;;;5095887;28;20063;-61
2022/09/07 09:47:34;;;;;;;18.38;16.40;;;21.20;99.90;;;;;;5097440;28;20172;-62
2022/09/07 09:50:22;;;;;;;18.27;16.58;;;21.20;99.90;;;;;;5104205;28;20128;-61
2022/09/07 09:52:50;;;;;;;19.63;16.05;;;21.20;99.90;;;;;;5091602;28;20055;-62
2022/09/07 09:55:23;;;;;;;20.80;15.98;;;21.20;99.90;;;;;;5097513;28;20068;-61
2022/09/07 09:57:57;;;;;;;19.13;16.33;;;21.30;99.90;;;;;;5102175;28;20496;-62
2022/09/07 10:00:24;;;;;;;17.30;15.63;;;21.30;99.90;;;;;;5099752;28;20643;-62
2022/09/07 10:03:15;;;;;;;17.88;14.75;;;21.50;99.90;;;;;;5102944;28;20047;-62
2022/09/07 10:05:43;;;;;;;16.27;14.63;;;21.50;99.90;;;;;;5095457;28;20055;-62
2022/09/07 10:08:27;;;;;;;19.00;15.10;;;21.50;99.90;;;;;;5101364;28;20518;-60
2022/09/07 10:11:03;;;;;;;19.45;14.60;;;21.50;99.90;;;;;;5091372;28;20043;-62
2022/09/07 10:13:31;;;;;;;16.17;14.38;;;21.50;99.90;;;;;;5116581;27;20059;-62
2022/09/07 10:16:02;;;;;;;16.48;14.68;;;21.50;99.90;;;;;;5117242;27;20565;-63
2022/09/07 10:18:35;;;;;;;15.70;13.77;;;21.50;99.90;;;;;;5127488;28;20078;-61
2022/09/07 10:21:22;;;;;;;15.43;13.75;;;21.50;99.90;;;;;;5135766;27;20089;-60
2022/09/07 10:24:03;;;;;;;17.55;13.20;;;21.60;99.90;;;;;;5125594;27;20051;-63
2022/09/07 10:26:34;;;;;;;15.18;10.93;;;21.70;99.90;;;;;;5140476;27;20384;-62
2022/09/07 10:29:15;;;;;;;12.10;10.82;;;21.70;99.90;;;;;;5137544;27;20075;-62
2022/09/07 10:32:24;;;;;;;15.70;10.70;;;21.80;99.90;;;;;;5141113;27;20081;-62
2022/09/07 10:35:15;;;;;;;13.32;10.40;;;22.00;99.90;;;;;;5127568;27;20125;-61
2022/09/07 10:38:15;;;;;;;11.98;10.27;;;22.20;99.90;;;;;;5114169;28;20434;-62
2022/09/07 10:41:08;;;;;;;12.63;9.30;;;22.30;99.90;;;;;;5131324;27;20054;-62
2022/09/07 10:43:43;;;;;;;9.45;8.55;;;22.40;99.90;;;;;;5113025;28;20047;-62
2022/09/07 10:46:51;;;;;;;10.55;8.13;;;22.40;99.90;;;;;;5130957;27;20039;-66
2022/09/07 10:49:39;;;;;;;10.05;7.47;;;22.50;99.90;;;;;;5130625;27;20096;-62
2022/09/07 10:52:14;;;;;;;10.90;8.40;;;22.50;99.90;;;;;;5131111;27;20050;-62
2022/09/07 10:55:00;;;;;;;8.95;8.05;;;22.50;99.90;;;;;;5130947;27;20057;-62
2022/09/07 10:57:41;;;;;;;8.32;7.25;;;22.50;99.90;;;;;;5120839;27;20527;-62
2022/09/07 11:00:19;;;;;;;8.52;6.65;;;22.50;99.90;;;;;;5132235;27;20425;-62
2022/09/07 11:03:23;;;;;;;13.95;7.43;;;22.70;99.90;;;;;;5116260;27;20107;-62
2022/09/07 11:06:26;;;;;;;8.73;7.83;;;22.80;99.90;;;;;;5138650;27;20051;-62
2022/09/07 11:09:15;;;;;;;7.50;6.70;;;22.80;99.90;;;;;;5124768;27;20909;-62
2022/09/07 11:11:43;;;;;;;8.05;7.03;;;22.80;99.90;;;;;;5138495;27;20376;-62
2022/09/07 11:14:18;;;;;;;8.73;6.45;;;23.00;99.90;;;;;;5139009;27;20047;-62
2022/09/07 11:16:52;;;;;;;7.93;5.90;;;23.10;99.90;;;;;;5123841;27;20035;-63
2022/09/07 11:19:29;;;;;;;10.32;6.70;;;23.20;99.90;;;;;;5145580;27;20047;-61
2022/09/07 11:22:05;;;;;;;6.85;5.72;;;23.30;99.90;;;;;;5128129;27;20043;-63
2022/09/07 11:24:42;;;;;;;6.25;5.65;;;23.50;99.90;;;;;;5146941;27;20064;-62
2022/09/07 11:27:19;;;;;;;6.40;5.38;;;23.60;99.90;;;;;;5136183;27;20049;-63
2022/09/07 11:29:55;;;;;;;6.47;5.70;;;23.70;99.90;;;;;;5131981;27;20147;-62
2022/09/07 11:32:25;;;;;;;7.60;5.72;;;23.90;99.90;;;;;;5147644;27;20070;-62
2022/09/07 11:35:14;;;;;;;6.47;5.43;;;24.00;99.90;;;;;;5147845;27;20043;-62
2022/09/07 11:37:58;;;;;;;7.38;5.05;;;24.00;99.90;;;;;;5148802;27;20371;-62
2022/09/07 11:40:59;;;;;;;6.57;5.35;;;24.10;99.90;;;;;;5141800;27;20047;-62
2022/09/07 11:43:30;;;;;;;6.80;5.72;;;24.10;99.90;;;;;;5141961;27;20035;-62
2022/09/07 11:46:03;;;;;;;7.43;5.07;;;24.00;99.90;;;;;;5138470;27;20050;-62
2022/09/07 11:48:51;;;;;;;7.47;5.20;;;24.00;99.90;;;;;;5137781;27;20066;-62
2022/09/07 11:51:40;;;;;;;6.97;4.75;;;24.10;99.90;;;;;;5150252;27;20062;-65
2022/09/07 11:54:47;;;;;;;6.45;4.60;;;24.20;99.90;;;;;;5142793;27;20380;-62
2022/09/07 11:57:50;;;;;;;5.90;4.40;;;24.30;99.90;;;;;;5115758;27;20052;-61
2022/09/07 12:00:26;;;;;;;6.05;4.60;;;24.40;99.90;;;;;;5140304;27;20066;-66
2022/09/07 12:03:20;;;;;;;6.18;4.20;;;24.40;99.90;;;;;;5138928;27;20101;-62
2022/09/07 12:05:54;;;;;;;26.23;7.53;;;24.40;99.90;;;;;;5143932;27;20090;-63
2022/09/07 12:08:51;;;;;;;6.45;3.55;;;24.60;99.90;;;;;;5139974;27;20415;-63
2022/09/07 12:11:20;;;;;;;6.65;2.90;;;24.60;99.90;;;;;;5144783;27;20045;-66
2022/09/07 12:14:25;;;;;;;7.22;2.70;;;24.60;99.90;;;;;;5143635;27;20407;-62
2022/09/07 12:17:24;;;;;;;5.05;2.65;;;24.50;99.90;;;;;;5121336;27;20449;-62
2022/09/07 12:20:14;;;;;;;4.57;2.70;;;24.40;99.90;;;;;;5125440;27;20107;-62
2022/09/07 12:23:03;;;;;;;4.32;2.45;;;24.40;99.90;;;;;;5139227;27;20511;-61
2022/09/07 12:25:30;;;;;;;3.92;2.45;;;24.30;99.90;;;;;;5136381;27;20043;-62
2022/09/07 12:27:56;;;;;;;3.42;2.20;;;24.30;99.90;;;;;;5142763;27;20054;-61
2022/09/07 12:30:22;;;;;;;5.25;2.10;;;24.40;99.90;;;;;;5122214;27;20043;-63
2022/09/07 12:32:54;;;;;;;3.70;2.00;;;24.40;99.90;;;;;;5126339;27;20115;-62
2022/09/07 12:35:25;;;;;;;2.70;1.90;;;24.50;99.90;;;;;;5151772;27;20103;-62
2022/09/07 12:37:52;;;;;;;3.10;1.80;;;24.50;99.90;;;;;;5153236;27;20085;-62
2022/09/07 12:40:31;;;;;;;3.17;1.75;;;24.70;99.70;;;;;;5127043;27;20049;-62
2022/09/07 12:43:19;;;;;;;3.28;1.77;;;24.70;98.70;;;;;;5140905;27;20058;-62
2022/09/07 12:45:47;;;;;;;4.05;2.00;;;24.80;98.20;;;;;;5126582;27;20050;-62
2022/09/07 12:48:15;;;;;;;3.65;2.05;;;24.80;98.60;;;;;;5133008;27;20035;-61
2022/09/07 12:51:14;;;;;;;3.65;1.83;;;24.80;99.00;;;;;;5115506;27;20560;-61
2022/09/07 12:54:26;;;;;;;3.30;1.80;;;24.90;98.80;;;;;;5132441;27;20107;-61
2022/09/07 12:57:28;;;;;;;5.05;1.88;;;24.90;98.40;;;;;;5042910;28;20053;-62
2022/09/07 13:00:03;;;;;;;2.58;1.77;;;24.90;98.50;;;;;;5027775;28;20057;-62
2022/09/07 13:02:52;;;;;;;2.80;1.70;;;24.90;98.30;;;;;;5117709;27;20070;-62